createdAt,value
2022-11-08T00:00:42.758Z,12.60
2022-11-08T00:03:11.212Z,12.60
2022-11-08T00:05:58.588Z,12.50
2022-11-08T00:08:44.116Z,12.50
2022-11-08T00:11:29.635Z,12.50
2022-11-08T00:14:00.620Z,12.60
2022-11-08T00:16:29.839Z,12.60
2022-11-08T00:18:58.848Z,12.60
2022-11-08T00:21:28.629Z,12.50
2022-11-08T00:23:59.232Z,12.50
2022-11-08T00:26:28.355Z,12.40
2022-11-08T00:28:56.592Z,12.50
2022-11-08T00:31:27.246Z,12.70
2022-11-08T00:33:55.688Z,12.70
2022-11-08T00:36:24.032Z,12.70
2022-11-08T00:38:53.655Z,12.70
2022-11-08T00:41:24.475Z,12.70
2022-11-08T00:43:52.824Z,12.80
2022-11-08T00:46:21.133Z,12.80
2022-11-08T00:48:49.450Z,12.80
2022-11-08T00:51:17.753Z,12.70
2022-11-08T00:53:48.382Z,12.70
2022-11-08T00:56:20.356Z,12.60
2022-11-08T00:58:48.712Z,12.60
2022-11-08T01:01:19.097Z,12.60
2022-11-08T01:03:49.252Z,12.50
2022-11-08T01:06:19.150Z,12.50
2022-11-08T01:08:48.067Z,12.50
2022-11-08T01:11:19.221Z,12.60
2022-11-08T01:13:49.627Z,12.60
2022-11-08T01:16:19.993Z,12.60
2022-11-08T01:18:49.723Z,12.60
2022-11-08T01:21:18.352Z,12.60
2022-11-08T01:23:47.963Z,12.70
2022-11-08T01:26:18.455Z,12.70
2022-11-08T01:28:48.770Z,12.70
2022-11-08T01:31:19.481Z,12.70
2022-11-08T01:33:51.253Z,12.70
2022-11-08T01:36:21.819Z,12.80
2022-11-08T01:38:50.837Z,12.90
2022-11-08T01:41:21.341Z,12.80
2022-11-08T01:43:52.383Z,12.80
2022-11-08T01:46:42.553Z,12.80
2022-11-08T01:49:34.773Z,12.80
2022-11-08T01:52:14.520Z,12.80
2022-11-08T01:54:48.960Z,12.80
2022-11-08T01:57:21.922Z,12.80
2022-11-08T01:59:54.128Z,12.80
2022-11-08T02:02:22.808Z,12.80
2022-11-08T02:04:51.156Z,12.80
2022-11-08T02:07:19.935Z,12.80
2022-11-08T02:09:48.976Z,12.70
2022-11-08T02:12:18.610Z,12.70
2022-11-08T02:14:46.968Z,12.60
2022-11-08T02:17:16.663Z,12.60
2022-11-08T02:19:47.572Z,12.50
2022-11-08T02:22:28.956Z,12.50
2022-11-08T02:25:00.433Z,12.40
2022-11-08T02:27:28.703Z,12.30
2022-11-08T02:29:57.763Z,12.30
2022-11-08T02:32:27.440Z,12.30
2022-11-08T02:34:58.259Z,12.30
2022-11-08T02:37:27.924Z,12.30
2022-11-08T02:39:56.275Z,12.20
2022-11-08T02:42:25.904Z,12.20
2022-11-08T02:44:54.115Z,12.10
2022-11-08T02:47:24.171Z,12.10
2022-11-08T02:49:52.786Z,12.20
2022-11-08T02:52:21.085Z,12.20
2022-11-08T02:54:51.858Z,12.20
2022-11-08T02:57:20.152Z,12.10
2022-11-08T02:59:50.170Z,12.10
2022-11-08T03:04:48.754Z,12.10
2022-11-08T03:07:22.157Z,12.10
2022-11-08T03:09:53.027Z,12.00
2022-11-08T03:12:21.422Z,12.00
2022-11-08T03:14:51.428Z,12.00
2022-11-08T03:17:19.687Z,11.90
2022-11-08T03:19:48.020Z,11.90
2022-11-08T03:22:16.948Z,11.90
2022-11-08T03:24:47.344Z,11.90
2022-11-08T03:27:15.881Z,12.00
2022-11-08T03:29:44.214Z,12.00
2022-11-08T03:32:14.255Z,11.90
2022-11-08T03:34:43.112Z,11.90
2022-11-08T03:37:11.668Z,11.90
2022-11-08T03:39:40.093Z,11.80
2022-11-08T03:42:08.823Z,11.80
2022-11-08T03:44:37.059Z,11.70
2022-11-08T03:47:05.473Z,11.70
2022-11-08T03:49:35.133Z,11.70
2022-11-08T03:52:03.448Z,11.70
2022-11-08T03:54:31.795Z,11.70
2022-11-08T03:57:00.122Z,11.70
2022-11-08T03:59:28.343Z,11.70
2022-11-08T04:01:56.997Z,11.70
2022-11-08T04:04:25.476Z,11.60
2022-11-08T04:06:55.384Z,11.60
2022-11-08T04:09:23.638Z,11.60
2022-11-08T04:12:09.507Z,11.50
2022-11-08T04:14:55.095Z,11.40
2022-11-08T04:17:43.464Z,11.50
2022-11-08T04:20:30.057Z,11.40
2022-11-08T04:22:59.665Z,11.50
2022-11-08T04:25:31.208Z,11.50
2022-11-08T04:28:03.210Z,11.60
2022-11-08T04:30:31.728Z,11.50
2022-11-08T04:33:01.880Z,11.50
2022-11-08T04:35:30.410Z,11.60
2022-11-08T04:38:03.958Z,11.60
2022-11-08T04:40:32.612Z,11.60
2022-11-08T04:43:00.891Z,11.60
2022-11-08T04:45:29.249Z,11.70
2022-11-08T04:47:57.508Z,11.70
2022-11-08T04:50:25.736Z,11.80
2022-11-08T04:52:55.039Z,11.80
2022-11-08T04:55:26.955Z,11.80
2022-11-08T04:58:00.110Z,11.80
2022-11-08T05:00:29.064Z,11.80
2022-11-08T05:02:57.498Z,11.80
2022-11-08T05:05:25.834Z,11.80
2022-11-08T05:07:55.488Z,11.70
2022-11-08T05:10:25.327Z,11.70
2022-11-08T05:12:57.960Z,11.70
2022-11-08T05:15:26.514Z,11.70
2022-11-08T05:17:54.795Z,11.80
2022-11-08T05:20:40.183Z,11.80
2022-11-08T05:23:27.897Z,11.80
2022-11-08T05:25:59.219Z,11.90
2022-11-08T05:28:30.490Z,11.90
2022-11-08T05:30:58.927Z,12.00
2022-11-08T05:33:29.700Z,12.00
2022-11-08T05:36:00.058Z,12.10
2022-11-08T05:38:32.709Z,12.10
2022-11-08T05:41:06.331Z,12.20
2022-11-08T05:43:35.213Z,12.30
2022-11-08T05:46:06.073Z,12.30
2022-11-08T05:48:34.531Z,12.30
2022-11-08T05:51:03.075Z,12.30
2022-11-08T05:53:32.298Z,12.30
2022-11-08T05:56:02.166Z,12.20
2022-11-08T05:58:33.405Z,12.30
2022-11-08T06:01:02.367Z,12.20
2022-11-08T06:03:31.635Z,12.30
2022-11-08T06:06:03.210Z,12.20
2022-11-08T06:08:31.516Z,12.20
2022-11-08T06:11:04.165Z,12.20
2022-11-08T06:13:34.792Z,12.20
2022-11-08T06:16:04.080Z,12.20
2022-11-08T06:18:33.123Z,12.10
2022-11-08T06:21:02.126Z,12.00
2022-11-08T06:23:30.738Z,12.00
2022-11-08T06:25:59.464Z,12.00
2022-11-08T06:28:28.340Z,12.00
2022-11-08T06:30:59.819Z,12.00
2022-11-08T06:33:28.964Z,12.00
2022-11-08T06:35:57.444Z,12.10
2022-11-08T06:38:26.366Z,12.20
2022-11-08T06:40:54.632Z,12.20
2022-11-08T06:43:23.147Z,12.20
2022-11-08T06:45:51.701Z,12.20
2022-11-08T06:48:21.382Z,12.10
2022-11-08T06:50:49.635Z,12.10
2022-11-08T06:53:18.133Z,12.10
2022-11-08T06:55:46.738Z,12.20
2022-11-08T06:58:15.078Z,12.20
2022-11-08T07:00:43.394Z,12.30
2022-11-08T07:03:11.807Z,12.30
2022-11-08T07:05:41.465Z,12.30
2022-11-08T07:08:09.954Z,12.20
2022-11-08T07:10:40.620Z,12.20
2022-11-08T07:13:12.121Z,12.20
2022-11-08T07:15:41.702Z,12.20
2022-11-08T07:18:12.374Z,12.20
2022-11-08T07:20:43.394Z,12.30
2022-11-08T07:23:12.347Z,12.40
2022-11-08T07:25:43.034Z,12.50
2022-11-08T07:28:17.733Z,12.60
2022-11-08T07:30:46.666Z,12.60
2022-11-08T07:33:16.818Z,12.70
2022-11-08T07:35:48.382Z,12.70
2022-11-08T07:38:16.694Z,12.80
2022-11-08T07:40:44.943Z,12.90
2022-11-08T07:43:13.472Z,13.00
2022-11-08T07:45:43.002Z,13.10
2022-11-08T07:48:13.947Z,13.10
2022-11-08T07:50:43.309Z,13.10
2022-11-08T07:53:12.980Z,13.10
2022-11-08T07:55:41.863Z,13.10
2022-11-08T07:58:11.753Z,13.10
2022-11-08T08:00:42.503Z,13.10
2022-11-08T08:03:12.365Z,13.20
2022-11-08T08:05:45.050Z,13.20
2022-11-08T08:08:15.128Z,13.20
2022-11-08T08:10:43.635Z,13.20
2022-11-08T08:13:12.854Z,13.30
2022-11-08T08:15:41.301Z,13.30
2022-11-08T08:18:10.510Z,13.30
2022-11-08T08:20:39.925Z,13.30
2022-11-08T08:23:08.317Z,13.40
2022-11-08T08:25:37.984Z,13.50
2022-11-08T08:28:07.011Z,13.50
2022-11-08T08:30:35.759Z,13.60
2022-11-08T08:35:55.474Z,13.80
2022-11-08T08:38:24.261Z,13.80
2022-11-08T08:40:53.973Z,13.90
2022-11-08T08:43:22.626Z,14.00
2022-11-08T08:45:51.739Z,14.00
2022-11-08T08:48:20.143Z,14.10
2022-11-08T08:50:48.462Z,14.00
2022-11-08T08:53:17.546Z,14.00
2022-11-08T08:55:47.996Z,14.00
2022-11-08T08:58:17.772Z,14.00
2022-11-08T09:03:35.834Z,14.00
2022-11-08T09:06:04.722Z,14.20
2022-11-08T09:08:32.990Z,14.30
2022-11-08T09:11:02.725Z,14.30
2022-11-08T09:13:32.595Z,14.40
2022-11-08T09:16:03.852Z,14.40
2022-11-08T09:18:32.829Z,14.40
2022-11-08T09:21:03.328Z,14.30
2022-11-08T09:23:31.796Z,14.30
2022-11-08T09:26:01.223Z,14.30
2022-11-08T09:28:32.882Z,14.30
2022-11-08T09:31:02.927Z,14.30
2022-11-08T09:33:31.288Z,14.30
2022-11-08T09:36:01.598Z,14.40
2022-11-08T09:38:30.224Z,14.30
2022-11-08T09:41:15.146Z,14.40
2022-11-08T09:44:09.715Z,14.30
2022-11-08T09:46:44.884Z,14.30
2022-11-08T09:49:19.688Z,14.30
2022-11-08T09:51:48.854Z,14.30
2022-11-08T09:54:21.836Z,14.30
2022-11-08T09:56:51.546Z,14.30
2022-11-08T09:59:36.354Z,14.30
2022-11-08T10:02:11.296Z,14.40
2022-11-08T10:04:39.656Z,14.50
2022-11-08T10:07:23.917Z,14.50
2022-11-08T10:10:24.672Z,14.50
2022-11-08T10:13:01.732Z,14.60
2022-11-08T10:15:39.585Z,14.60
2022-11-08T10:18:29.209Z,14.60
2022-11-08T10:21:07.019Z,14.60
2022-11-08T10:23:44.370Z,14.70
2022-11-08T10:26:20.532Z,14.80
2022-11-08T10:28:56.919Z,14.90
2022-11-08T10:31:33.055Z,15.00
2022-11-08T10:34:04.180Z,15.20
2022-11-08T10:36:36.335Z,15.40
2022-11-08T10:39:14.594Z,15.50
2022-11-08T10:41:48.347Z,15.50
2022-11-08T10:44:20.998Z,15.50
2022-11-08T10:46:53.925Z,15.40
2022-11-08T10:49:25.482Z,15.50
2022-11-08T10:51:56.316Z,15.60
2022-11-08T10:54:43.328Z,15.90
2022-11-08T10:57:13.357Z,16.10
2022-11-08T10:59:42.280Z,16.20
2022-11-08T11:02:21.197Z,16.40
2022-11-08T11:04:50.202Z,16.50
2022-11-08T11:07:31.904Z,16.50
2022-11-08T11:10:17.472Z,16.60
2022-11-08T11:12:51.232Z,16.60
2022-11-08T11:15:20.372Z,16.30
2022-11-08T11:17:50.039Z,16.00
2022-11-08T11:20:22.460Z,16.10
2022-11-08T11:22:52.459Z,16.20
2022-11-08T11:25:23.422Z,16.50
2022-11-08T11:27:56.578Z,16.80
2022-11-08T11:30:29.491Z,17.00
2022-11-08T11:33:07.635Z,16.90
2022-11-08T11:35:45.273Z,17.00
2022-11-08T11:38:23.654Z,16.90
2022-11-08T11:40:54.393Z,16.80
2022-11-08T11:43:28.514Z,16.90
2022-11-08T11:46:03.849Z,16.80
2022-11-08T11:48:38.449Z,16.90
2022-11-08T11:51:09.011Z,16.90
2022-11-08T11:53:39.774Z,17.20
2022-11-08T11:56:23.780Z,17.10
2022-11-08T11:59:20.011Z,17.20
2022-11-08T12:01:57.196Z,17.10
2022-11-08T12:04:48.722Z,17.10
2022-11-08T12:07:21.216Z,16.90
2022-11-08T12:10:00.225Z,17.10
2022-11-08T12:12:43.491Z,17.20
2022-11-08T12:15:23.764Z,17.20
2022-11-08T12:18:42.289Z,17.10
2022-11-08T12:21:15.600Z,16.80
2022-11-08T12:24:20.872Z,16.60
2022-11-08T12:26:57.585Z,16.40
2022-11-08T12:29:29.331Z,16.30
2022-11-08T12:32:22.913Z,16.40
2022-11-08T12:35:04.474Z,16.50
2022-11-08T12:37:46.531Z,16.60
2022-11-08T12:40:21.845Z,16.70
2022-11-08T12:43:03.548Z,16.90
2022-11-08T12:45:50.729Z,17.00
2022-11-08T12:48:29.398Z,17.00
2022-11-08T12:51:04.247Z,17.10
2022-11-08T12:54:00.791Z,17.10
2022-11-08T12:56:34.659Z,16.90
2022-11-08T12:59:07.077Z,16.80
2022-11-08T13:01:37.445Z,16.70
2022-11-08T13:04:39.103Z,16.70
2022-11-08T13:07:19.132Z,16.70
2022-11-08T13:09:57.583Z,16.50
2022-11-08T13:12:34.364Z,16.50
2022-11-08T13:15:03.707Z,16.40
2022-11-08T13:17:32.550Z,16.30
2022-11-08T13:20:05.695Z,16.30
2022-11-08T13:23:00.294Z,16.30
2022-11-08T13:25:41.180Z,16.40
2022-11-08T13:28:41.654Z,16.40
2022-11-08T13:31:33.756Z,16.50
2022-11-08T13:34:25.744Z,16.50
2022-11-08T13:37:34.239Z,16.40
2022-11-08T13:40:33.116Z,16.40
2022-11-08T13:43:22.990Z,16.40
2022-11-08T13:45:51.672Z,16.30
2022-11-08T13:48:41.917Z,16.30
2022-11-08T13:51:30.837Z,16.30
2022-11-08T13:54:01.288Z,16.40
2022-11-08T13:56:48.548Z,16.50
2022-11-08T13:59:58.770Z,16.50
2022-11-08T14:02:41.084Z,16.50
2022-11-08T14:05:25.474Z,16.80
2022-11-08T14:08:25.646Z,16.80
2022-11-08T14:15:11.580Z,16.40
2022-11-08T14:17:47.185Z,16.40
2022-11-08T14:20:27.586Z,16.50
2022-11-08T14:22:56.657Z,16.60
2022-11-08T14:25:30.245Z,16.60
2022-11-08T14:28:01.407Z,16.60
2022-11-08T14:30:32.141Z,16.40
2022-11-08T14:33:15.647Z,16.40
2022-11-08T14:35:44.275Z,16.30
2022-11-08T14:42:33.646Z,16.10
2022-11-08T14:45:02.479Z,16.00
2022-11-08T14:47:32.808Z,15.90
2022-11-08T14:50:02.562Z,15.80
2022-11-08T14:52:34.043Z,15.80
2022-11-08T14:55:06.056Z,15.80
2022-11-08T14:57:37.706Z,15.80
2022-11-08T15:00:15.326Z,15.70
2022-11-08T15:02:48.300Z,15.70
2022-11-08T15:05:34.175Z,15.70
2022-11-08T15:08:04.574Z,15.60
2022-11-08T15:10:33.138Z,15.60
2022-11-08T15:13:02.265Z,15.50
2022-11-08T15:15:33.704Z,15.50
2022-11-08T15:18:26.054Z,15.50
2022-11-08T15:20:57.500Z,15.40
2022-11-08T15:23:37.318Z,15.40
2022-11-08T15:26:06.009Z,15.40
2022-11-08T15:28:35.509Z,15.40
2022-11-08T15:31:06.039Z,15.30
2022-11-08T15:33:37.092Z,15.30
2022-11-08T15:36:13.450Z,15.30
2022-11-08T15:38:43.071Z,15.30
2022-11-08T15:41:34.503Z,15.30
2022-11-08T15:44:23.149Z,15.30
2022-11-08T15:46:53.258Z,15.20
2022-11-08T15:49:23.138Z,15.20
2022-11-08T15:51:54.446Z,15.10
2022-11-08T15:54:24.630Z,15.10
2022-11-08T15:56:54.485Z,15.10
2022-11-08T15:59:25.859Z,15.10
2022-11-08T16:01:57.359Z,15.10
2022-11-08T16:04:26.043Z,15.00
2022-11-08T16:06:55.843Z,15.00
2022-11-08T16:09:24.327Z,15.00
2022-11-08T16:11:52.683Z,15.00
2022-11-08T16:14:24.115Z,15.10
2022-11-08T16:16:52.390Z,15.20
2022-11-08T16:19:22.429Z,15.10
2022-11-08T16:21:51.637Z,15.10
2022-11-08T16:24:21.775Z,15.20
2022-11-08T16:26:50.341Z,15.20
2022-11-08T16:29:21.549Z,15.20
2022-11-08T16:31:50.678Z,15.20
2022-11-08T16:34:19.327Z,15.20
2022-11-08T16:36:49.108Z,15.20
2022-11-08T16:39:19.280Z,15.20
2022-11-08T16:41:48.956Z,15.30
2022-11-08T16:44:18.160Z,15.30
2022-11-08T16:46:46.770Z,15.30
2022-11-08T16:49:21.669Z,15.30
2022-11-08T16:51:50.779Z,15.40
2022-11-08T16:54:20.976Z,15.40
2022-11-08T16:56:51.775Z,15.50
2022-11-08T16:59:20.148Z,15.60
2022-11-08T17:01:49.905Z,15.50
2022-11-08T17:04:18.319Z,15.50
2022-11-08T17:06:46.634Z,15.60
2022-11-08T17:09:15.101Z,15.60
2022-11-08T17:11:43.323Z,15.60
2022-11-08T17:14:13.943Z,15.70
2022-11-08T17:16:42.308Z,15.60
2022-11-08T17:19:10.656Z,15.60
2022-11-08T17:21:44.865Z,15.60
2022-11-08T17:24:20.850Z,15.50
2022-11-08T17:26:50.358Z,15.50
2022-11-08T17:29:20.132Z,15.50
2022-11-08T17:31:48.894Z,15.60
2022-11-08T17:34:17.274Z,15.60
2022-11-08T17:36:47.867Z,15.60
2022-11-08T17:39:16.218Z,15.50
2022-11-08T17:41:44.437Z,15.50
2022-11-08T17:44:12.779Z,15.50
2022-11-08T17:46:42.434Z,15.40
2022-11-08T17:49:11.125Z,15.40
2022-11-08T17:51:39.513Z,15.40
2022-11-08T17:54:07.775Z,15.30
2022-11-08T17:56:36.587Z,15.30
2022-11-08T17:59:05.062Z,15.30
2022-11-08T18:01:33.622Z,15.40
2022-11-08T18:04:03.667Z,15.40
2022-11-08T18:06:32.129Z,15.30
2022-11-08T18:09:00.511Z,15.30
2022-11-08T18:11:28.997Z,15.30
2022-11-08T18:13:57.671Z,15.20
2022-11-08T18:16:25.982Z,15.20
2022-11-08T18:18:54.608Z,15.30
2022-11-08T18:21:24.656Z,15.30
2022-11-08T18:23:53.446Z,15.20
2022-11-08T18:26:21.862Z,15.20
2022-11-08T18:28:50.472Z,15.20
2022-11-08T18:31:20.987Z,15.10
2022-11-08T18:33:49.641Z,15.20
2022-11-08T18:36:21.332Z,15.20
2022-11-08T18:38:53.286Z,15.20
2022-11-08T18:41:25.430Z,15.10
2022-11-08T18:43:55.757Z,15.10
2022-11-08T18:46:26.599Z,15.10
2022-11-08T18:48:55.359Z,15.10
2022-11-08T18:51:24.450Z,15.10
2022-11-08T18:53:54.269Z,15.00
2022-11-08T18:56:23.080Z,15.00
2022-11-08T18:58:51.652Z,15.00
2022-11-08T19:01:20.435Z,14.90
2022-11-08T19:03:48.835Z,14.90
2022-11-08T19:06:17.110Z,15.00
2022-11-08T19:08:45.400Z,14.90
2022-11-08T19:11:20.373Z,15.00
2022-11-08T19:13:49.540Z,15.00
2022-11-08T19:16:19.266Z,15.00
2022-11-08T19:18:49.347Z,15.00
2022-11-08T19:21:19.432Z,15.00
2022-11-08T19:23:48.698Z,14.90
2022-11-08T19:26:20.067Z,15.00
2022-11-08T19:28:49.313Z,14.90
2022-11-08T19:31:19.872Z,14.90
2022-11-08T19:33:49.272Z,14.90
2022-11-08T19:36:19.700Z,14.80
2022-11-08T19:38:48.390Z,14.80
2022-11-08T19:41:22.000Z,14.80
2022-11-08T19:43:51.874Z,14.80
2022-11-08T19:46:21.907Z,14.80
2022-11-08T19:48:52.026Z,14.80
2022-11-08T19:51:22.416Z,14.80
2022-11-08T19:53:51.463Z,14.70
2022-11-08T19:56:29.231Z,14.70
2022-11-08T19:59:02.571Z,14.60
2022-11-08T20:01:36.236Z,14.50
2022-11-08T20:04:05.832Z,14.50
2022-11-08T20:06:34.878Z,14.50
2022-11-08T20:09:05.217Z,14.60
2022-11-08T20:11:37.237Z,14.50
2022-11-08T20:14:06.511Z,14.50
2022-11-08T20:16:38.067Z,14.50
2022-11-08T20:19:09.356Z,14.50
2022-11-08T20:21:40.619Z,14.50
2022-11-08T20:24:12.407Z,14.50
2022-11-08T20:26:42.430Z,14.50
2022-11-08T20:29:10.785Z,14.60
2022-11-08T20:31:39.367Z,14.50
2022-11-08T20:34:10.394Z,14.50
2022-11-08T20:36:39.007Z,14.60
2022-11-08T20:39:08.366Z,14.60
2022-11-08T20:41:37.686Z,14.60
2022-11-08T20:44:08.572Z,14.50
2022-11-08T20:46:38.420Z,14.50
2022-11-08T20:49:07.038Z,14.40
2022-11-08T20:51:36.216Z,14.40
2022-11-08T20:54:04.711Z,14.30
2022-11-08T20:56:33.033Z,14.40
2022-11-08T20:59:01.431Z,14.40
2022-11-08T21:01:33.024Z,14.40
2022-11-08T21:04:01.989Z,14.30
2022-11-08T21:06:35.537Z,14.30
2022-11-08T21:09:23.365Z,14.30
2022-11-08T21:11:52.795Z,14.20
2022-11-08T21:14:21.219Z,14.10
2022-11-08T21:19:39.925Z,14.10
2022-11-08T21:22:17.096Z,14.10
2022-11-08T21:24:46.849Z,14.10
2022-11-08T21:27:15.787Z,14.10
2022-11-08T21:29:44.294Z,14.10
2022-11-08T21:32:14.228Z,14.10
2022-11-08T21:34:45.757Z,14.10
2022-11-08T21:37:14.986Z,14.00
2022-11-08T21:39:43.375Z,14.00
2022-11-08T21:42:11.881Z,14.10
2022-11-08T21:44:40.238Z,14.10
2022-11-08T21:47:08.650Z,14.10
2022-11-08T21:49:38.362Z,14.10
2022-11-08T21:52:07.362Z,14.10
2022-11-08T21:54:35.790Z,14.10
2022-11-08T21:57:04.096Z,14.20
2022-11-08T21:59:32.481Z,14.30
2022-11-08T22:02:00.821Z,14.40
2022-11-08T22:04:29.348Z,14.40
2022-11-08T22:07:01.617Z,14.40
2022-11-08T22:09:29.928Z,14.40
2022-11-08T22:11:58.273Z,14.40
2022-11-08T22:14:26.685Z,14.40
2022-11-08T22:16:54.981Z,14.30
2022-11-08T22:19:23.351Z,14.30
2022-11-08T22:21:51.738Z,14.20
2022-11-08T22:24:21.748Z,14.30
2022-11-08T22:26:51.731Z,14.30
2022-11-08T22:29:20.293Z,14.20
2022-11-08T22:31:48.849Z,14.30
2022-11-08T22:34:17.300Z,14.30
2022-11-08T22:36:46.636Z,14.30
2022-11-08T22:39:15.686Z,14.30
2022-11-08T22:41:46.225Z,14.30
2022-11-08T22:44:15.128Z,14.40
2022-11-08T22:46:44.671Z,14.40
2022-11-08T22:49:15.810Z,14.30
2022-11-08T22:51:44.313Z,14.30
2022-11-08T22:54:13.097Z,14.30
2022-11-08T22:56:41.978Z,14.30
2022-11-08T22:59:13.033Z,14.30
2022-11-08T23:01:41.472Z,14.20
2022-11-08T23:04:11.377Z,14.10
2022-11-08T23:06:40.880Z,14.10
2022-11-08T23:09:09.470Z,14.10
2022-11-08T23:11:55.440Z,14.10
2022-11-08T23:14:42.689Z,14.10
2022-11-08T23:17:11.105Z,14.00
2022-11-08T23:19:56.785Z,14.00
2022-11-08T23:22:42.444Z,14.00
2022-11-08T23:25:10.730Z,13.90
2022-11-08T23:27:56.688Z,13.80
2022-11-08T23:30:44.233Z,13.80
2022-11-08T23:33:12.645Z,13.70
2022-11-08T23:36:01.941Z,13.70
2022-11-08T23:38:30.401Z,13.70
2022-11-08T23:41:17.937Z,13.70
2022-11-08T23:44:03.468Z,13.70
2022-11-08T23:46:33.428Z,13.70
2022-11-08T23:49:02.982Z,13.70
2022-11-08T23:51:31.500Z,13.70
2022-11-08T23:53:59.743Z,13.70
2022-11-08T23:56:29.042Z,13.70
2022-11-08T23:58:59.119Z,13.70
